createdAt,value
2022-08-07T00:00:19.614Z,14.10
2022-08-07T00:03:04.928Z,14.17
2022-08-07T00:05:50.514Z,14.14
2022-08-07T00:08:36.577Z,14.12
2022-08-07T00:11:33.071Z,14.03
2022-08-07T00:14:18.371Z,14.04
2022-08-07T00:17:04.361Z,14.02
2022-08-07T00:20:01.198Z,13.94
2022-08-07T00:22:51.712Z,13.83
2022-08-07T00:25:41.537Z,13.83
2022-08-07T00:28:33.450Z,13.75
2022-08-07T00:31:19.297Z,13.74
2022-08-07T00:34:04.198Z,13.70
2022-08-07T00:36:54.549Z,13.64
2022-08-07T00:39:45.044Z,13.61
2022-08-07T00:42:32.946Z,13.68
2022-08-07T00:45:21.700Z,13.67
2022-08-07T00:48:11.047Z,13.68
2022-08-07T00:50:56.655Z,13.68
2022-08-07T00:53:50.147Z,13.65
2022-08-07T00:56:37.243Z,13.57
2022-08-07T00:59:35.491Z,13.53
2022-08-07T01:02:28.838Z,13.44
2022-08-07T01:05:19.154Z,13.47
2022-08-07T01:08:05.090Z,13.52
2022-08-07T01:10:56.480Z,13.50
2022-08-07T01:13:46.740Z,13.44
2022-08-07T01:16:42.970Z,13.46
2022-08-07T01:19:32.552Z,13.45
2022-08-07T01:22:22.735Z,13.38
2022-08-07T01:25:54.614Z,13.36
2022-08-07T01:28:19.956Z,13.39
2022-08-07T01:31:05.433Z,13.30
2022-08-07T01:33:55.491Z,13.19
2022-08-07T01:36:41.899Z,13.19
2022-08-07T01:39:41.293Z,13.10
2022-08-07T01:42:39.491Z,13.04
2022-08-07T01:45:40.138Z,12.96
2022-08-07T01:48:30.282Z,13.04
2022-08-07T01:51:24.748Z,12.97
2022-08-07T01:54:36.555Z,12.82
2022-08-07T01:57:27.819Z,12.71
2022-08-07T02:00:13.908Z,12.86
2022-08-07T02:03:18.298Z,12.89
2022-08-07T02:06:31.918Z,12.74
2022-08-07T02:09:33.736Z,12.71
2022-08-07T02:12:31.419Z,12.76
2022-08-07T02:15:22.602Z,12.71
2022-08-07T02:18:12.246Z,12.60
2022-08-07T02:21:00.057Z,12.48
2022-08-07T02:23:51.758Z,12.47
2022-08-07T02:26:39.229Z,12.49
2022-08-07T02:29:25.045Z,12.45
2022-08-07T02:32:13.698Z,12.44
2022-08-07T02:35:01.129Z,12.53
2022-08-07T02:37:48.001Z,12.55
2022-08-07T02:40:35.449Z,12.54
2022-08-07T02:43:22.547Z,12.55
2022-08-07T02:46:11.294Z,12.48
2022-08-07T02:48:56.657Z,12.42
2022-08-07T02:51:52.074Z,12.45
2022-08-07T02:54:41.074Z,12.45
2022-08-07T02:57:30.972Z,12.50
2022-08-07T03:00:19.858Z,12.47
2022-08-07T03:03:07.829Z,12.47
2022-08-07T03:05:59.721Z,12.46
2022-08-07T03:08:46.080Z,12.44
2022-08-07T03:11:38.645Z,12.43
2022-08-07T03:14:25.929Z,12.44
2022-08-07T03:17:13.063Z,12.39
2022-08-07T03:20:00.060Z,12.37
2022-08-07T03:22:50.320Z,12.31
2022-08-07T03:25:40.480Z,12.28
2022-08-07T03:28:38.211Z,12.23
2022-08-07T03:31:42.759Z,12.24
2022-08-07T03:34:32.905Z,12.12
2022-08-07T03:37:27.489Z,12.16
2022-08-07T03:40:16.751Z,12.13
2022-08-07T03:43:02.882Z,12.08
2022-08-07T03:45:48.596Z,12.07
2022-08-07T03:48:45.725Z,12.10
2022-08-07T03:51:47.932Z,12.17
2022-08-07T03:54:54.245Z,12.25
2022-08-07T03:58:33.134Z,12.17
2022-08-07T04:00:53.319Z,12.09
2022-08-07T04:03:49.760Z,12.14
2022-08-07T04:06:40.321Z,12.14
2022-08-07T04:09:38.031Z,12.02
2022-08-07T04:12:31.628Z,11.95
2022-08-07T04:15:20.478Z,12.00
2022-08-07T04:18:57.519Z,12.07
2022-08-07T04:21:16.670Z,12.12
2022-08-07T04:24:07.838Z,12.10
2022-08-07T04:26:53.257Z,12.14
2022-08-07T04:29:48.835Z,12.14
2022-08-07T04:32:48.076Z,12.19
2022-08-07T04:35:50.593Z,12.14
2022-08-07T04:38:37.058Z,12.09
2022-08-07T04:41:22.278Z,12.17
2022-08-07T04:44:13.171Z,12.22
2022-08-07T04:47:11.419Z,12.26
2022-08-07T04:50:35.271Z,12.36
2022-08-07T04:54:05.759Z,12.34
2022-08-07T04:58:16.316Z,12.34
2022-08-07T05:00:18.879Z,12.44
2022-08-07T05:03:59.921Z,12.45
2022-08-07T05:07:19.558Z,12.56
2022-08-07T05:10:14.131Z,12.67
2022-08-07T05:14:44.284Z,12.76
2022-08-07T05:16:17.171Z,12.85
2022-08-07T05:19:13.180Z,12.95
2022-08-07T05:22:01.988Z,13.04
2022-08-07T05:24:50.471Z,13.10
2022-08-07T05:28:02.601Z,13.10
2022-08-07T05:30:42.549Z,13.23
2022-08-07T05:33:29.258Z,13.29
2022-08-07T05:36:22.410Z,13.41
2022-08-07T05:40:07.111Z,13.48
2022-08-07T05:42:14.745Z,13.62
2022-08-07T05:45:26.370Z,13.70
2022-08-07T05:48:26.518Z,13.64
2022-08-07T05:51:14.921Z,13.67
2022-08-07T05:54:13.381Z,13.74
2022-08-07T05:57:09.010Z,13.89
2022-08-07T05:59:57.700Z,13.92
2022-08-07T06:02:47.564Z,13.99
2022-08-07T06:05:34.230Z,14.05
2022-08-07T06:08:30.855Z,14.15
2022-08-07T06:11:17.041Z,14.27
2022-08-07T06:14:11.852Z,14.29
2022-08-07T06:17:07.040Z,14.41
2022-08-07T06:20:03.413Z,14.52
2022-08-07T06:22:50.562Z,14.60
2022-08-07T06:25:54.782Z,14.62
2022-08-07T06:28:53.012Z,14.69
2022-08-07T06:31:46.644Z,14.75
2022-08-07T06:34:35.489Z,14.77
2022-08-07T06:37:20.855Z,14.94
2022-08-07T06:40:16.174Z,15.01
2022-08-07T06:43:21.600Z,15.08
2022-08-07T06:46:12.509Z,15.23
2022-08-07T06:48:58.466Z,15.42
2022-08-07T06:51:49.839Z,15.51
2022-08-07T06:55:33.577Z,15.63
2022-08-07T06:57:49.973Z,15.81
2022-08-07T07:00:42.456Z,16.06
2022-08-07T07:03:39.779Z,16.22
2022-08-07T07:06:34.191Z,16.53
2022-08-07T07:09:31.275Z,16.82
2022-08-07T07:12:31.168Z,17.17
2022-08-07T07:15:32.591Z,17.64
2022-08-07T07:19:00.133Z,18.07
2022-08-07T07:22:04.774Z,18.60
2022-08-07T07:25:14.125Z,19.18
2022-08-07T07:28:42.406Z,19.91
2022-08-07T07:31:40.160Z,20.50
2022-08-07T07:34:32.154Z,20.74
2022-08-07T07:37:45.086Z,20.95
2022-08-07T07:40:26.059Z,21.30
2022-08-07T07:43:18.465Z,21.98
2022-08-07T07:46:38.296Z,22.47
2022-08-07T07:50:32.962Z,22.93
2022-08-07T07:52:26.114Z,23.42
2022-08-07T07:55:12.921Z,23.72
2022-08-07T07:57:58.796Z,23.92
2022-08-07T08:00:48.715Z,24.29
2022-08-07T08:04:09.551Z,24.87
2022-08-07T08:06:50.922Z,25.58
2022-08-07T08:09:52.017Z,26.12
2022-08-07T08:12:52.459Z,27.13
2022-08-07T08:15:57.497Z,26.98
2022-08-07T08:18:45.503Z,27.15
2022-08-07T08:21:56.928Z,26.56
2022-08-07T08:24:47.627Z,26.39
2022-08-07T08:27:43.901Z,26.86
2022-08-07T08:30:51.512Z,27.57
2022-08-07T08:33:42.375Z,28.05
2022-08-07T08:36:36.313Z,28.90
2022-08-07T08:39:25.085Z,28.75
2022-08-07T08:42:52.461Z,28.99
2022-08-07T08:46:00.561Z,30.02
2022-08-07T08:49:07.113Z,30.04
2022-08-07T08:52:14.041Z,30.93
2022-08-07T08:55:09.514Z,30.86
2022-08-07T08:58:20.352Z,30.41
2022-08-07T09:01:19.929Z,31.24
2022-08-07T09:04:25.953Z,30.96
2022-08-07T09:07:27.058Z,30.26
2022-08-07T09:10:25.280Z,30.69
2022-08-07T09:13:36.953Z,30.79
2022-08-07T09:16:41.702Z,31.15
2022-08-07T09:20:35.265Z,31.49
2022-08-07T09:24:33.426Z,32.26
2022-08-07T09:27:04.574Z,32.20
2022-08-07T09:30:08.718Z,32.48
2022-08-07T09:33:05.533Z,32.79
2022-08-07T09:36:11.761Z,31.96
2022-08-07T09:39:52.741Z,31.99
2022-08-07T09:42:29.239Z,31.80
2022-08-07T09:47:42.382Z,32.31
2022-08-07T09:50:01.738Z,32.78
2022-08-07T09:52:42.726Z,33.17
2022-08-07T09:56:37.296Z,32.66
2022-08-07T10:00:01.479Z,32.95
2022-08-07T10:03:08.281Z,32.58
2022-08-07T10:06:25.166Z,31.65
2022-08-07T10:09:42.507Z,31.85
2022-08-07T10:13:54.952Z,30.96
2022-08-07T10:16:41.228Z,32.44
2022-08-07T10:19:55.568Z,31.30
2022-08-07T10:23:09.760Z,30.13
2022-08-07T10:25:55.134Z,30.76
2022-08-07T10:28:49.943Z,30.76
2022-08-07T10:31:52.865Z,30.50
2022-08-07T10:34:59.768Z,31.35
2022-08-07T10:38:35.186Z,31.89
2022-08-07T10:41:51.749Z,31.40
2022-08-07T10:44:51.827Z,32.07
2022-08-07T10:47:53.595Z,32.08
2022-08-07T10:50:50.309Z,30.76
2022-08-07T10:54:11.581Z,31.24
2022-08-07T10:57:36.933Z,31.84
2022-08-07T11:00:39.227Z,32.04
2022-08-07T11:03:42.934Z,31.54
2022-08-07T11:06:59.271Z,30.86
2022-08-07T11:10:07.461Z,30.17
2022-08-07T11:14:45.362Z,29.81
2022-08-07T11:16:54.730Z,28.96
2022-08-07T11:19:50.468Z,28.75
2022-08-07T11:22:45.873Z,28.36
2022-08-07T11:25:49.991Z,27.58
2022-08-07T11:28:40.788Z,27.71
2022-08-07T11:31:53.734Z,28.25
2022-08-07T11:34:48.676Z,28.05
2022-08-07T11:37:58.271Z,29.10
2022-08-07T11:41:03.798Z,29.01
2022-08-07T11:44:12.645Z,28.77
2022-08-07T11:47:55.973Z,27.12
2022-08-07T11:51:40.868Z,27.62
2022-08-07T11:55:01.184Z,28.09
2022-08-07T11:58:13.226Z,29.19
2022-08-07T12:01:09.575Z,29.79
2022-08-07T12:04:08.911Z,30.55
2022-08-07T12:07:20.593Z,30.99
2022-08-07T12:10:19.010Z,31.43
2022-08-07T12:13:17.177Z,32.42
2022-08-07T12:16:09.230Z,31.18
2022-08-07T12:19:21.729Z,32.12
2022-08-07T12:22:37.475Z,33.23
2022-08-07T12:26:05.311Z,34.40
2022-08-07T12:28:31.207Z,34.19
2022-08-07T12:32:01.317Z,34.94
2022-08-07T12:34:49.561Z,35.08
2022-08-07T12:38:09.562Z,35.39
2022-08-07T12:40:50.541Z,35.26
2022-08-07T12:44:02.791Z,35.16
2022-08-07T12:46:59.754Z,35.54
2022-08-07T12:50:04.741Z,35.14
2022-08-07T12:53:00.535Z,35.28
2022-08-07T12:56:09.554Z,36.56
2022-08-07T12:58:59.593Z,37.35
2022-08-07T13:02:09.975Z,37.59
2022-08-07T13:06:01.746Z,37.38
2022-08-07T13:08:50.468Z,38.11
2022-08-07T13:12:02.242Z,38.48
2022-08-07T13:15:14.209Z,37.63
2022-08-07T13:18:28.256Z,38.75
2022-08-07T13:21:51.237Z,38.54
2022-08-07T13:24:37.058Z,37.79
2022-08-07T13:28:10.806Z,34.86
2022-08-07T13:31:13.462Z,34.24
2022-08-07T13:34:33.003Z,33.28
2022-08-07T13:37:32.596Z,32.92
2022-08-07T13:40:41.854Z,32.46
2022-08-07T13:43:29.018Z,32.65
2022-08-07T13:46:28.263Z,32.00
2022-08-07T13:50:35.518Z,31.54
2022-08-07T13:52:32.078Z,30.73
2022-08-07T13:55:26.321Z,30.60
2022-08-07T13:58:18.927Z,29.64
2022-08-07T14:01:15.964Z,29.43
2022-08-07T14:04:15.866Z,28.73
2022-08-07T14:07:09.638Z,28.79
2022-08-07T14:10:17.689Z,28.86
2022-08-07T14:13:05.388Z,28.50
2022-08-07T14:16:01.740Z,27.52
2022-08-07T14:18:57.212Z,27.83
2022-08-07T14:22:04.160Z,27.70
2022-08-07T14:24:54.112Z,27.29
2022-08-07T14:28:12.263Z,27.42
2022-08-07T14:30:55.127Z,27.23
2022-08-07T14:33:45.117Z,26.87
2022-08-07T14:36:32.943Z,26.63
2022-08-07T14:40:16.273Z,26.69
2022-08-07T14:42:32.566Z,26.89
2022-08-07T14:45:22.479Z,26.80
2022-08-07T14:48:09.382Z,26.73
2022-08-07T14:51:15.776Z,26.56
2022-08-07T14:54:30.151Z,26.21
2022-08-07T14:57:15.080Z,26.56
2022-08-07T15:00:20.808Z,26.57
2022-08-07T15:03:19.426Z,26.69
2022-08-07T15:06:05.581Z,26.25
2022-08-07T15:08:55.833Z,26.41
2022-08-07T15:11:53.879Z,25.09
2022-08-07T15:14:58.112Z,25.38
2022-08-07T15:20:55.567Z,25.60
2022-08-07T15:25:14.601Z,25.80
2022-08-07T15:26:57.362Z,25.65
2022-08-07T15:33:03.756Z,25.60
2022-08-07T15:39:03.826Z,25.38
2022-08-07T15:42:46.252Z,25.24
2022-08-07T15:45:12.342Z,25.42
2022-08-07T15:48:20.359Z,25.49
2022-08-07T15:51:10.080Z,25.48
2022-08-07T15:54:00.451Z,25.47
2022-08-07T15:56:48.305Z,25.13
2022-08-07T15:59:39.898Z,25.05
2022-08-07T16:02:35.536Z,24.81
2022-08-07T16:05:23.079Z,25.08
2022-08-07T16:08:30.206Z,25.13
2022-08-07T16:11:40.135Z,25.19
2022-08-07T16:14:45.163Z,25.06
2022-08-07T16:18:02.283Z,24.83
2022-08-07T16:22:01.682Z,24.64
2022-08-07T16:24:33.661Z,24.80
2022-08-07T16:27:26.534Z,24.88
2022-08-07T16:30:32.628Z,24.98
2022-08-07T16:34:02.172Z,24.98
2022-08-07T16:37:01.988Z,25.02
2022-08-07T16:40:33.240Z,25.01
2022-08-07T16:44:02.555Z,24.77
2022-08-07T16:47:45.228Z,24.68
2022-08-07T16:50:52.731Z,24.65
2022-08-07T16:54:09.798Z,24.62
2022-08-07T16:58:02.253Z,24.64
2022-08-07T17:00:41.806Z,24.46
2022-08-07T17:03:57.686Z,24.38
2022-08-07T17:07:16.476Z,24.39
2022-08-07T17:10:32.283Z,24.09
2022-08-07T17:13:41.610Z,24.24
2022-08-07T17:16:55.770Z,24.29
2022-08-07T17:20:03.061Z,24.30
2022-08-07T17:23:14.816Z,24.33
2022-08-07T17:26:30.619Z,24.27
2022-08-07T17:30:14.915Z,24.08
2022-08-07T17:32:52.552Z,24.20
2022-08-07T17:36:00.568Z,24.22
2022-08-07T17:39:10.724Z,24.20
2022-08-07T17:42:06.998Z,24.28
2022-08-07T17:44:57.525Z,24.27
2022-08-07T17:47:54.104Z,24.23
2022-08-07T17:50:46.998Z,24.25
2022-08-07T17:54:00.967Z,24.27
2022-08-07T17:57:04.776Z,24.16
2022-08-07T18:00:07.864Z,23.73
2022-08-07T18:03:01.056Z,23.87
2022-08-07T18:06:02.373Z,23.72
2022-08-07T18:09:05.433Z,23.49
2022-08-07T18:12:16.286Z,23.49
2022-08-07T18:15:11.239Z,23.48
2022-08-07T18:18:46.224Z,23.48
2022-08-07T18:21:42.040Z,23.41
2022-08-07T18:24:33.544Z,23.19
2022-08-07T18:27:39.283Z,23.22
2022-08-07T18:30:37.800Z,23.29
2022-08-07T18:33:55.339Z,23.22
2022-08-07T18:38:58.005Z,23.17
2022-08-07T18:40:56.138Z,23.09
2022-08-07T18:43:59.801Z,23.06
2022-08-07T18:47:09.570Z,22.98
2022-08-07T18:50:38.726Z,22.94
2022-08-07T18:53:57.729Z,22.81
2022-08-07T18:57:29.391Z,22.68
2022-08-07T19:00:32.779Z,22.54
2022-08-07T19:03:35.563Z,22.43
2022-08-07T19:06:54.838Z,22.32
2022-08-07T19:10:05.216Z,22.13
2022-08-07T19:12:58.145Z,22.00
2022-08-07T19:17:02.979Z,21.95
2022-08-07T19:20:03.284Z,21.83
2022-08-07T19:23:17.746Z,21.65
2022-08-07T19:26:21.622Z,21.52
2022-08-07T19:30:58.066Z,21.49
2022-08-07T19:32:26.919Z,21.43
2022-08-07T19:35:22.465Z,21.31
2022-08-07T19:38:16.845Z,21.23
2022-08-07T19:41:03.400Z,21.08
2022-08-07T19:43:56.802Z,21.03
2022-08-07T19:46:55.586Z,20.95
2022-08-07T19:49:58.192Z,20.88
2022-08-07T19:52:58.631Z,20.71
2022-08-07T19:55:58.113Z,20.62
2022-08-07T19:58:53.126Z,20.50
2022-08-07T20:01:52.614Z,20.36
2022-08-07T20:04:46.219Z,20.31
2022-08-07T20:07:47.498Z,20.18
2022-08-07T20:10:54.492Z,20.11
2022-08-07T20:13:47.150Z,20.12
2022-08-07T20:16:36.150Z,20.11
2022-08-07T20:19:28.741Z,20.07
2022-08-07T20:22:34.136Z,19.91
2022-08-07T20:25:23.897Z,19.86
2022-08-07T20:28:12.655Z,19.75
2022-08-07T20:31:01.354Z,19.68
2022-08-07T20:33:51.703Z,19.55
2022-08-07T20:36:44.123Z,19.37
2022-08-07T20:40:03.925Z,19.30
2022-08-07T20:42:48.017Z,19.29
2022-08-07T20:46:28.203Z,19.25
2022-08-07T20:48:58.203Z,19.16
2022-08-07T20:51:56.110Z,19.04
2022-08-07T20:54:53.031Z,18.86
2022-08-07T20:57:47.457Z,18.87
2022-08-07T21:00:51.124Z,18.84
2022-08-07T21:03:45.091Z,18.78
2022-08-07T21:06:53.098Z,18.72
2022-08-07T21:09:53.187Z,18.69
2022-08-07T21:12:47.276Z,18.65
2022-08-07T21:15:47.518Z,18.62
2022-08-07T21:18:46.133Z,18.18
2022-08-07T21:21:56.927Z,17.87
2022-08-07T21:24:47.890Z,17.96
2022-08-07T21:28:01.679Z,18.13
2022-08-07T21:31:01.161Z,18.13
2022-08-07T21:33:54.624Z,18.08
2022-08-07T21:36:50.219Z,18.05
2022-08-07T21:39:51.809Z,17.96
2022-08-07T21:42:59.424Z,17.83
2022-08-07T21:46:08.017Z,17.76
2022-08-07T21:49:26.778Z,17.68
2022-08-07T21:52:33.212Z,17.57
2022-08-07T21:55:50.786Z,17.54
2022-08-07T21:58:55.051Z,17.57
2022-08-07T22:02:10.888Z,17.53
2022-08-07T22:05:02.916Z,17.27
2022-08-07T22:07:58.781Z,17.07
2022-08-07T22:10:47.777Z,17.05
2022-08-07T22:13:51.233Z,17.11
2022-08-07T22:16:47.605Z,17.20
2022-08-07T22:19:44.273Z,17.19
2022-08-07T22:22:58.878Z,17.05
2022-08-07T22:26:10.492Z,16.87
2022-08-07T22:29:33.803Z,16.80
2022-08-07T22:32:34.290Z,16.89
2022-08-07T22:35:23.203Z,16.86
2022-08-07T22:38:32.957Z,16.79
2022-08-07T22:42:02.509Z,16.74
2022-08-07T22:44:36.223Z,16.66
2022-08-07T22:47:49.218Z,16.51
2022-08-07T22:50:37.606Z,16.42
2022-08-07T22:54:05.676Z,16.53
2022-08-07T22:57:25.962Z,16.54
2022-08-07T23:00:21.455Z,16.38
2022-08-07T23:03:23.779Z,16.23
2022-08-07T23:06:24.034Z,16.09
2022-08-07T23:10:03.698Z,16.11
2022-08-07T23:12:55.663Z,16.08
2022-08-07T23:16:46.432Z,16.21
2022-08-07T23:19:57.902Z,16.19
2022-08-07T23:23:05.048Z,16.14
2022-08-07T23:26:23.543Z,16.09
2022-08-07T23:30:35.788Z,15.95
2022-08-07T23:34:23.671Z,15.85
2022-08-07T23:36:28.753Z,15.77
2022-08-07T23:39:25.572Z,15.63
2022-08-07T23:42:38.042Z,15.51
2022-08-07T23:46:02.787Z,15.32
2022-08-07T23:49:23.045Z,15.31
2022-08-07T23:52:58.104Z,15.24
2022-08-07T23:55:52.464Z,15.42
